< < Back
Terminal Aerodrome Forecast


Current Version              Previous Versions:   1  2  3  4  5  6  7  8  9  

Terminal Aerodrome Forecast

354
FTAK31 PAJN 011700
TAFAHN
TAF
PAHN 011738Z 0118/0218 12006KT P6SM VCSH OVC015
      TEMPO 0118/0122 6SM -SHRA
     FM012200 11012KT P6SM VCSH SCT020 BKN080
     FM020200 07008KT P6SM SCT030 BKN050
     FM020700 VRB06KT P6SM VCSH BKN030 OVC050
     FM021400 VRB06KT P6SM -RA BKN020 OVC050
      AMD LTD TO CLD VIS AND WIND=

Latest METAR

569
SAUS70 KWBC 020300 RRA
MTRAHN
METAR KAHN 020251Z AUTO 13005KT 10SM CLR 18/09 A3013 RMK AO2 SLP197
T01830089 51033


USA.gov is the U.S. government's official web portal to all federal, state and local government web resources and services.